Axtel, Kentucky
Current Conditions -  °F | °C
As of 9:58 AM on Thursday 23 Oct 2014 (Local Time) from KFTK Reporting Station
Clear Clear  
Wind Chill: 50°   Ceiling: Unl
Heat Index: 50°   Visibility: 10mi
Dew Point: 41°   Wind: 5mph
Humidity: 70%   Direction: 100°E
Pressure: 30.24"   Gusts: NA
Location:  37.7834°N, 86.4612°W
Report Text: KFTK 231458Z AUTO 10004KT 10SM CLR 10/05 A3024 RMK AO2 SLP245 T01010048 58000
Loading
Personal Weather Stations






























Interactive Weather Map
Tropical Storm Tracking
New forecast layout! Learn more

10-Day Weather Forecast

Advertisements
Track Severe Weather on mobile